Whitesburg, Kentucky
Current Conditions -  °F | °C
As of 12:55 AM on Friday 28 Nov 2014 (Local Time) from KLNP Reporting Station
Light Snow Light Snow  
Wind Chill: 20°   Ceiling: 3200
Heat Index: 27°   Visibility: 10mi
Dew Point: 19°   Wind: 6mph
Humidity: 74%   Direction: 300°WNW
Pressure: 30.27"   Gusts: NA
Location:  37.12°N, 82.83°W
Report Text: KLNP 280555Z AUTO 30005KT 10SM -SN SCT014 BKN032 OVC037 M03/M07 A3027 RMK AO2
Loading
Personal Weather Stations






























Interactive Weather Map New forecast layout! Learn more

10-Day Weather Forecast

Advertisements
Track Severe Weather on mobile